sensor_id;sensor_type;location;lat;lon;timestamp;pressure;altitude;pressure_sealevel;temperature;humidity
78444;BME280;67739;52.986;8.894;2023-02-28T00:02:15;103230.69;;;1.01;78.47
78444;BME280;67739;52.986;8.894;2023-02-28T00:04:42;103230.63;;;0.98;78.42
78444;BME280;67739;52.986;8.894;2023-02-28T00:07:08;103235.03;;;0.98;78.52
78444;BME280;67739;52.986;8.894;2023-02-28T00:09:33;103228.75;;;0.94;78.18
78444;BME280;67739;52.986;8.894;2023-02-28T00:11:58;103240.16;;;0.93;78.36
78444;BME280;67739;52.986;8.894;2023-02-28T00:14:24;103236.50;;;0.90;78.36
78444;BME280;67739;52.986;8.894;2023-02-28T00:16:49;103229.38;;;0.87;78.67
78444;BME280;67739;52.986;8.894;2023-02-28T00:19:14;103239.06;;;0.87;78.56
78444;BME280;67739;52.986;8.894;2023-02-28T00:21:40;103229.22;;;0.81;79.14
78444;BME280;67739;52.986;8.894;2023-02-28T00:24:06;103229.97;;;0.77;78.76
78444;BME280;67739;52.986;8.894;2023-02-28T00:26:31;103244.88;;;0.75;79.37
78444;BME280;67739;52.986;8.894;2023-02-28T00:28:57;103241.25;;;0.72;79.27
78444;BME280;67739;52.986;8.894;2023-02-28T00:31:22;103238.47;;;0.67;79.01
78444;BME280;67739;52.986;8.894;2023-02-28T00:33:47;103242.75;;;0.63;79.08
78444;BME280;67739;52.986;8.894;2023-02-28T00:36:13;103240.88;;;0.61;79.12
78444;BME280;67739;52.986;8.894;2023-02-28T00:38:39;103234.66;;;0.59;79.10
78444;BME280;67739;52.986;8.894;2023-02-28T00:41:04;103239.91;;;0.57;79.17
78444;BME280;67739;52.986;8.894;2023-02-28T00:43:30;103246.94;;;0.57;79.32
78444;BME280;67739;52.986;8.894;2023-02-28T00:45:56;103240.72;;;0.55;79.35
78444;BME280;67739;52.986;8.894;2023-02-28T00:48:21;103244.16;;;0.52;79.24
78444;BME280;67739;52.986;8.894;2023-02-28T00:50:48;103242.31;;;0.50;79.48
78444;BME280;67739;52.986;8.894;2023-02-28T00:53:14;103238.66;;;0.46;79.34
78444;BME280;67739;52.986;8.894;2023-02-28T00:55:39;103236.81;;;0.44;79.38
78444;BME280;67739;52.986;8.894;2023-02-28T00:58:05;103239.38;;;0.41;78.94
78444;BME280;67739;52.986;8.894;2023-02-28T01:00:30;103242.75;;;0.37;79.06
78444;BME280;67739;52.986;8.894;2023-02-28T01:02:55;103247.03;;;0.33;79.20
78444;BME280;67739;52.986;8.894;2023-02-28T01:05:21;103244.28;;;0.30;79.26
78444;BME280;67739;52.986;8.894;2023-02-28T01:07:46;103242.41;;;0.26;79.17
78444;BME280;67739;52.986;8.894;2023-02-28T01:10:11;103234.28;;;0.20;78.75
78444;BME280;67739;52.986;8.894;2023-02-28T01:12:37;103237.63;;;0.14;78.80
78444;BME280;67739;52.986;8.894;2023-02-28T01:15:02;103236.56;;;0.09;78.45
78444;BME280;67739;52.986;8.894;2023-02-28T01:17:28;103241.66;;;0.05;78.63
78444;BME280;67739;52.986;8.894;2023-02-28T01:19:54;103245.94;;;0.01;78.54
78444;BME280;67739;52.986;8.894;2023-02-28T01:22:20;103250.19;;;-0.04;78.84
78444;BME280;67739;52.986;8.894;2023-02-28T01:24:45;103254.44;;;-0.08;79.25
78444;BME280;67739;52.986;8.894;2023-02-28T01:27:11;103252.66;;;-0.09;79.57
78444;BME280;67739;52.986;8.894;2023-02-28T01:29:36;103254.38;;;-0.09;79.79
78444;BME280;67739;52.986;8.894;2023-02-28T01:32:01;103256.91;;;-0.12;79.68
78444;BME280;67739;52.986;8.894;2023-02-28T01:34:26;103256.91;;;-0.12;79.53
78444;BME280;67739;52.986;8.894;2023-02-28T01:36:52;103256.84;;;-0.15;79.60
78444;BME280;67739;52.986;8.894;2023-02-28T01:39:17;103253.25;;;-0.17;79.65
78444;BME280;67739;52.986;8.894;2023-02-28T01:41:42;103257.63;;;-0.18;79.95
78444;BME280;67739;52.986;8.894;2023-02-28T01:47:11;103250.44;;;-0.22;79.76
78444;BME280;67739;52.986;8.894;2023-02-28T01:49:37;103253.00;;;-0.23;79.82
78444;BME280;67739;52.986;8.894;2023-02-28T01:52:02;103252.06;;;-0.25;79.75
78444;BME280;67739;52.986;8.894;2023-02-28T01:54:33;103251.09;;;-0.27;79.93
78444;BME280;67739;52.986;8.894;2023-02-28T01:57:13;103251.94;;;-0.28;80.02
78444;BME280;67739;52.986;8.894;2023-02-28T01:59:44;103257.19;;;-0.30;79.81
78444;BME280;67739;52.986;8.894;2023-02-28T02:02:16;103253.53;;;-0.33;79.79
78444;BME280;67739;52.986;8.894;2023-02-28T02:07:15;103254.25;;;-0.38;79.87
78444;BME280;67739;52.986;8.894;2023-02-28T02:09:41;103254.25;;;-0.38;80.14
78444;BME280;67739;52.986;8.894;2023-02-28T02:12:24;103256.91;;;-0.38;80.44
78444;BME280;67739;52.986;8.894;2023-02-28T02:15:19;103245.41;;;-0.40;80.32
78444;BME280;67739;52.986;8.894;2023-02-28T02:17:53;103248.88;;;-0.41;80.49
78444;BME280;67739;52.986;8.894;2023-02-28T02:20:32;103251.50;;;-0.41;80.37
78444;BME280;67739;52.986;8.894;2023-02-28T02:37:14;103248.81;;;-0.66;79.76
78444;BME280;67739;52.986;8.894;2023-02-28T02:39:48;103245.09;;;-0.73;79.70
78444;BME280;67739;52.986;8.894;2023-02-28T02:42:23;103250.06;;;-0.80;79.45
78444;BME280;67739;52.986;8.894;2023-02-28T02:45:05;103247.16;;;-0.86;79.58
78444;BME280;67739;52.986;8.894;2023-02-28T02:47:32;103255.81;;;-0.90;79.42
78444;BME280;67739;52.986;8.894;2023-02-28T02:50:03;103258.28;;;-0.95;79.76
78444;BME280;67739;52.986;8.894;2023-02-28T02:52:36;103255.38;;;-1.01;79.28
78444;BME280;67739;52.986;8.894;2023-02-28T02:55:03;103254.41;;;-1.04;79.49
78444;BME280;67739;52.986;8.894;2023-02-28T02:57:35;103251.56;;;-1.09;79.47
78444;BME280;67739;52.986;8.894;2023-02-28T03:00:04;103264.56;;;-1.14;79.51
78444;BME280;67739;52.986;8.894;2023-02-28T03:02:34;103252.19;;;-1.16;79.43
78444;BME280;67739;52.986;8.894;2023-02-28T03:05:08;103254.56;;;-1.22;79.49
78444;BME280;67739;52.986;8.894;2023-02-28T03:07:37;103248.34;;;-1.24;79.40
78444;BME280;67739;52.986;8.894;2023-02-28T03:10:25;103254.44;;;-1.25;79.70
78444;BME280;67739;52.986;8.894;2023-02-28T03:13:31;103248.16;;;-1.29;79.48
78444;BME280;67739;52.986;8.894;2023-02-28T03:30:00;103256.41;;;-1.42;80.15
78444;BME280;67739;52.986;8.894;2023-02-28T03:32:42;103256.31;;;-1.45;80.21
78444;BME280;67739;52.986;8.894;2023-02-28T03:35:32;103260.59;;;-1.47;80.01
78444;BME280;67739;52.986;8.894;2023-02-28T03:38:10;103266.63;;;-1.50;80.00
78444;BME280;67739;52.986;8.894;2023-02-28T03:40:43;103253.41;;;-1.51;80.15
78444;BME280;67739;52.986;8.894;2023-02-28T03:43:18;103248.09;;;-1.53;80.06
78444;BME280;67739;52.986;8.894;2023-02-28T03:45:45;103253.28;;;-1.54;80.41
78444;BME280;67739;52.986;8.894;2023-02-28T03:48:20;103257.66;;;-1.55;80.49
78444;BME280;67739;52.986;8.894;2023-02-28T03:50:49;103251.47;;;-1.55;80.64
78444;BME280;67739;52.986;8.894;2023-02-28T03:53:28;103260.22;;;-1.56;80.44
78444;BME280;67739;52.986;8.894;2023-02-28T03:56:11;103253.22;;;-1.56;80.20
78444;BME280;67739;52.986;8.894;2023-02-28T03:58:43;103267.28;;;-1.55;80.50
78444;BME280;67739;52.986;8.894;2023-02-28T04:01:16;103261.19;;;-1.54;80.62
78444;BME280;67739;52.986;8.894;2023-02-28T04:03:44;103267.41;;;-1.52;80.72
78444;BME280;67739;52.986;8.894;2023-02-28T04:06:15;103266.56;;;-1.51;80.59
78444;BME280;67739;52.986;8.894;2023-02-28T04:08:42;103265.66;;;-1.52;80.74
78444;BME280;67739;52.986;8.894;2023-02-28T04:13:43;103261.09;;;-1.56;81.05
78444;BME280;67739;52.986;8.894;2023-02-28T04:16:09;103259.38;;;-1.55;81.04
78444;BME280;67739;52.986;8.894;2023-02-28T04:18:38;103267.22;;;-1.57;81.03
78444;BME280;67739;52.986;8.894;2023-02-28T04:21:04;103270.66;;;-1.58;81.26
78444;BME280;67739;52.986;8.894;2023-02-28T04:23:30;103276.81;;;-1.59;81.20
78444;BME280;67739;52.986;8.894;2023-02-28T04:25:55;103271.53;;;-1.59;81.25
78444;BME280;67739;52.986;8.894;2023-02-28T04:28:21;103269.75;;;-1.60;81.15
78444;BME280;67739;52.986;8.894;2023-02-28T04:30:46;103279.38;;;-1.60;81.10
78444;BME280;67739;52.986;8.894;2023-02-28T04:33:12;103279.22;;;-1.63;81.20
78444;BME280;67739;52.986;8.894;2023-02-28T04:35:37;103285.34;;;-1.64;80.91
78444;BME280;67739;52.986;8.894;2023-02-28T04:38:02;103275.63;;;-1.65;81.40
78444;BME280;67739;52.986;8.894;2023-02-28T04:40:28;103279.09;;;-1.66;81.17
78444;BME280;67739;52.986;8.894;2023-02-28T04:42:53;103275.56;;;-1.67;81.15
78444;BME280;67739;52.986;8.894;2023-02-28T04:45:18;103277.22;;;-1.69;81.21
78444;BME280;67739;52.986;8.894;2023-02-28T04:47:44;103280.69;;;-1.70;81.26
78444;BME280;67739;52.986;8.894;2023-02-28T04:50:10;103277.91;;;-1.74;81.48
78444;BME280;67739;52.986;8.894;2023-02-28T04:52:35;103280.53;;;-1.74;81.16
78444;BME280;67739;52.986;8.894;2023-02-28T04:55:00;103282.19;;;-1.76;81.16
78444;BME280;67739;52.986;8.894;2023-02-28T04:57:26;103276.78;;;-1.80;80.90
78444;BME280;67739;52.986;8.894;2023-02-28T04:59:52;103284.63;;;-1.81;80.92
78444;BME280;67739;52.986;8.894;2023-02-28T05:02:17;103272.22;;;-1.84;80.83
78444;BME280;67739;52.986;8.894;2023-02-28T05:04:42;103263.38;;;-1.86;80.73
78444;BME280;67739;52.986;8.894;2023-02-28T05:07:08;103267.69;;;-1.88;80.81
78444;BME280;67739;52.986;8.894;2023-02-28T05:09:33;103268.41;;;-1.92;80.78
78444;BME280;67739;52.986;8.894;2023-02-28T05:11:58;103274.47;;;-1.93;80.51
78444;BME280;67739;52.986;8.894;2023-02-28T05:14:24;103277.81;;;-1.97;80.74
78444;BME280;67739;52.986;8.894;2023-02-28T05:16:49;103270.69;;;-1.99;80.77
78444;BME280;67739;52.986;8.894;2023-02-28T05:19:14;103263.56;;;-2.02;80.47
78444;BME280;67739;52.986;8.894;2023-02-28T05:21:42;103269.69;;;-2.03;80.95
78444;BME280;67739;52.986;8.894;2023-02-28T05:24:13;103274.88;;;-2.04;80.78
78444;BME280;67739;52.986;8.894;2023-02-28T05:26:40;103279.09;;;-2.08;80.78
78444;BME280;67739;52.986;8.894;2023-02-28T05:29:06;103282.41;;;-2.12;80.74
78444;BME280;67739;52.986;8.894;2023-02-28T05:31:32;103280.47;;;-2.16;80.62
78444;BME280;67739;52.986;8.894;2023-02-28T05:33:57;103288.25;;;-2.19;80.23
78444;BME280;67739;52.986;8.894;2023-02-28T05:36:23;103296.91;;;-2.22;79.94
78444;BME280;67739;52.986;8.894;2023-02-28T05:38:50;103290.59;;;-2.25;79.94
78444;BME280;67739;52.986;8.894;2023-02-28T05:41:16;103300.06;;;-2.29;80.30
78444;BME280;67739;52.986;8.894;2023-02-28T05:43:42;103291.16;;;-2.32;80.21
78444;BME280;67739;52.986;8.894;2023-02-28T05:46:10;103302.38;;;-2.36;80.20
78444;BME280;67739;52.986;8.894;2023-02-28T05:48:37;103301.41;;;-2.38;80.37
78444;BME280;67739;52.986;8.894;2023-02-28T05:51:04;103300.28;;;-2.43;80.22
78444;BME280;67739;52.986;8.894;2023-02-28T05:53:43;103297.53;;;-2.46;80.42
78444;BME280;67739;52.986;8.894;2023-02-28T05:56:08;103306.19;;;-2.49;80.69
78444;BME280;67739;52.986;8.894;2023-02-28T05:58:34;103303.47;;;-2.51;80.83
78444;BME280;67739;52.986;8.894;2023-02-28T06:01:00;103294.69;;;-2.51;81.22
78444;BME280;67739;52.986;8.894;2023-02-28T06:03:43;103305.22;;;-2.51;81.20
78444;BME280;67739;52.986;8.894;2023-02-28T06:06:08;103306.94;;;-2.52;80.84
78444;BME280;67739;52.986;8.894;2023-02-28T06:08:34;103313.91;;;-2.52;81.24
78444;BME280;67739;52.986;8.894;2023-02-28T06:11:03;103304.25;;;-2.53;81.11
78444;BME280;67739;52.986;8.894;2023-02-28T06:13:28;103306.88;;;-2.53;80.93
78444;BME280;67739;52.986;8.894;2023-02-28T06:15:53;103305.06;;;-2.54;80.97
78444;BME280;67739;52.986;8.894;2023-02-28T06:18:19;103312.88;;;-2.56;80.93
78444;BME280;67739;52.986;8.894;2023-02-28T06:20:44;103309.28;;;-2.58;80.98
78444;BME280;67739;52.986;8.894;2023-02-28T06:23:09;103309.16;;;-2.61;81.03
78444;BME280;67739;52.986;8.894;2023-02-28T06:25:34;103316.97;;;-2.62;81.04
78444;BME280;67739;52.986;8.894;2023-02-28T06:28:00;103325.59;;;-2.65;81.03
78444;BME280;67739;52.986;8.894;2023-02-28T06:30:26;103323.81;;;-2.66;81.12
78444;BME280;67739;52.986;8.894;2023-02-28T06:32:53;103330.72;;;-2.68;80.84
78444;BME280;67739;52.986;8.894;2023-02-28T06:35:19;103323.66;;;-2.69;80.79
78444;BME280;67739;52.986;8.894;2023-02-28T06:37:45;103329.72;;;-2.70;80.96
78444;BME280;67739;52.986;8.894;2023-02-28T06:40:10;103327.84;;;-2.72;80.61
78444;BME280;67739;52.986;8.894;2023-02-28T06:42:36;103325.13;;;-2.75;80.68
78444;BME280;67739;52.986;8.894;2023-02-28T06:45:01;103327.66;;;-2.77;80.79
78444;BME280;67739;52.986;8.894;2023-02-28T06:47:34;103324.13;;;-2.77;80.74
78444;BME280;67739;52.986;8.894;2023-02-28T06:49:59;103332.34;;;-2.70;81.80
78444;BME280;67739;52.986;8.894;2023-02-28T06:52:26;103329.47;;;-2.57;83.94
78444;BME280;67739;52.986;8.894;2023-02-28T06:54:52;103328.19;;;-2.47;85.91
78444;BME280;67739;52.986;8.894;2023-02-28T06:57:28;103330.38;;;-2.37;85.79
78444;BME280;67739;52.986;8.894;2023-02-28T06:59:57;103328.91;;;-2.30;85.37
78444;BME280;67739;52.986;8.894;2023-02-28T07:02:22;103331.75;;;-2.26;84.86
78444;BME280;67739;52.986;8.894;2023-02-28T07:04:47;103342.50;;;-2.21;84.78
78444;BME280;67739;52.986;8.894;2023-02-28T07:07:13;103338.31;;;-2.16;84.89
78444;BME280;67739;52.986;8.894;2023-02-28T07:09:38;103339.44;;;-2.11;84.69
78444;BME280;67739;52.986;8.894;2023-02-28T07:12:03;103352.59;;;-2.11;83.70
78444;BME280;67739;52.986;8.894;2023-02-28T07:14:29;103347.31;;;-2.11;83.29
78444;BME280;67739;52.986;8.894;2023-02-28T07:16:54;103350.78;;;-2.12;82.59
78444;BME280;67739;52.986;8.894;2023-02-28T07:19:19;103349.94;;;-2.11;82.56
78444;BME280;67739;52.986;8.894;2023-02-28T07:21:45;103352.66;;;-2.09;82.58
78444;BME280;67739;52.986;8.894;2023-02-28T07:24:10;103354.44;;;-2.08;82.24
78444;BME280;67739;52.986;8.894;2023-02-28T07:26:36;103353.63;;;-2.07;81.63
78444;BME280;67739;52.986;8.894;2023-02-28T07:29:01;103350.22;;;-2.05;82.08
78444;BME280;67739;52.986;8.894;2023-02-28T07:31:27;103352.09;;;-2.02;82.12
78444;BME280;67739;52.986;8.894;2023-02-28T07:33:52;103351.38;;;-1.98;82.15
78444;BME280;67739;52.986;8.894;2023-02-28T07:36:19;103349.66;;;-1.98;82.24
78444;BME280;67739;52.986;8.894;2023-02-28T07:38:46;103351.59;;;-1.94;82.25
78444;BME280;67739;52.986;8.894;2023-02-28T07:41:13;103353.53;;;-1.90;82.32
78444;BME280;67739;52.986;8.894;2023-02-28T07:43:39;103352.75;;;-1.87;82.44
78444;BME280;67739;52.986;8.894;2023-02-28T07:46:08;103358.16;;;-1.84;82.34
78444;BME280;67739;52.986;8.894;2023-02-28T07:48:33;103359.13;;;-1.82;82.30
78444;BME280;67739;52.986;8.894;2023-02-28T07:51:00;103361.88;;;-1.79;82.32
78444;BME280;67739;52.986;8.894;2023-02-28T07:53:26;103362.94;;;-1.75;82.15
78444;BME280;67739;52.986;8.894;2023-02-28T07:55:58;103362.22;;;-1.71;82.01
78444;BME280;67739;52.986;8.894;2023-02-28T07:58:24;103365.88;;;-1.68;82.48
78444;BME280;67739;52.986;8.894;2023-02-28T08:00:50;103370.44;;;-1.64;82.22
78444;BME280;67739;52.986;8.894;2023-02-28T08:03:19;103372.41;;;-1.58;82.49
78444;BME280;67739;52.986;8.894;2023-02-28T08:05:45;103362.94;;;-1.55;82.28
78444;BME280;67739;52.986;8.894;2023-02-28T08:08:11;103365.78;;;-1.50;82.29
78444;BME280;67739;52.986;8.894;2023-02-28T08:10:37;103363.38;;;-1.44;82.37
78444;BME280;67739;52.986;8.894;2023-02-28T08:13:02;103364.53;;;-1.37;82.71
78444;BME280;67739;52.986;8.894;2023-02-28T08:15:27;103370.16;;;-1.30;82.70
78444;BME280;67739;52.986;8.894;2023-02-28T08:17:53;103371.28;;;-1.23;82.29
78444;BME280;67739;52.986;8.894;2023-02-28T08:20:18;103368.91;;;-1.17;82.59
78444;BME280;67739;52.986;8.894;2023-02-28T08:22:44;103376.16;;;-1.12;82.54
78444;BME280;67739;52.986;8.894;2023-02-28T08:25:09;103376.47;;;-1.04;82.19
78444;BME280;67739;52.986;8.894;2023-02-28T08:27:35;103366.16;;;-0.98;82.13
78444;BME280;67739;52.986;8.894;2023-02-28T08:30:00;103362.13;;;-0.90;82.42
78444;BME280;67739;52.986;8.894;2023-02-28T08:32:26;103370.38;;;-0.81;82.70
78444;BME280;67739;52.986;8.894;2023-02-28T08:34:51;103367.25;;;-0.71;82.59
78444;BME280;67739;52.986;8.894;2023-02-28T08:37:16;103371.22;;;-0.59;83.00
78444;BME280;67739;52.986;8.894;2023-02-28T08:39:42;103369.97;;;-0.47;83.09
78444;BME280;67739;52.986;8.894;2023-02-28T08:42:07;103360.66;;;-0.37;83.11
78444;BME280;67739;52.986;8.894;2023-02-28T08:44:32;103360.19;;;-0.25;83.24
78444;BME280;67739;52.986;8.894;2023-02-28T08:46:58;103369.47;;;-0.13;83.31
78444;BME280;67739;52.986;8.894;2023-02-28T08:49:23;103364.69;;;0.01;83.34
78444;BME280;67739;52.986;8.894;2023-02-28T08:51:48;103364.31;;;0.14;83.19
78444;BME280;67739;52.986;8.894;2023-02-28T08:54:14;103362.19;;;0.29;83.27
78444;BME280;67739;52.986;8.894;2023-02-28T08:56:45;103365.34;;;0.43;83.25
78444;BME280;67739;52.986;8.894;2023-02-28T08:59:10;103375.50;;;0.58;82.62
78444;BME280;67739;52.986;8.894;2023-02-28T09:01:36;103371.59;;;0.72;82.20
78444;BME280;67739;52.986;8.894;2023-02-28T09:04:01;103371.16;;;0.85;81.92
78444;BME280;67739;52.986;8.894;2023-02-28T09:06:28;103367.16;;;0.98;81.08
78444;BME280;67739;52.986;8.894;2023-02-28T09:08:57;103365.00;;;1.13;79.17
78444;BME280;67739;52.986;8.894;2023-02-28T09:11:27;103362.03;;;1.31;79.07
78444;BME280;67739;52.986;8.894;2023-02-28T09:13:52;103353.75;;;1.49;77.17
78444;BME280;67739;52.986;8.894;2023-02-28T09:16:18;103361.34;;;1.66;75.87
78444;BME280;67739;52.986;8.894;2023-02-28T09:18:44;103357.56;;;1.88;75.81
78444;BME280;67739;52.986;8.894;2023-02-28T09:21:12;103364.28;;;2.07;74.75
78444;BME280;67739;52.986;8.894;2023-02-28T09:23:42;103366.53;;;2.25;72.78
78444;BME280;67739;52.986;8.894;2023-02-28T09:26:14;103374.06;;;2.41;71.43
78444;BME280;67739;52.986;8.894;2023-02-28T09:28:39;103368.22;;;2.54;69.90
78444;BME280;67739;52.986;8.894;2023-02-28T09:31:05;103356.94;;;2.63;67.16
78444;BME280;67739;52.986;8.894;2023-02-28T09:33:30;103360.75;;;2.72;66.66
78444;BME280;67739;52.986;8.894;2023-02-28T09:36:01;103362.78;;;2.84;65.52
78444;BME280;67739;52.986;8.894;2023-02-28T09:38:28;103356.00;;;2.95;64.54
78444;BME280;67739;52.986;8.894;2023-02-28T09:40:58;103363.38;;;3.08;63.35
78444;BME280;67739;52.986;8.894;2023-02-28T09:43:26;103363.66;;;3.20;61.73
78444;BME280;67739;52.986;8.894;2023-02-28T09:46:05;103368.41;;;3.35;60.15
78444;BME280;67739;52.986;8.894;2023-02-28T09:48:36;103368.69;;;3.47;59.17
78444;BME280;67739;52.986;8.894;2023-02-28T09:51:50;103369.81;;;3.57;56.74
78444;BME280;67739;52.986;8.894;2023-02-28T09:53:49;103366.44;;;3.66;55.74
78444;BME280;67739;52.986;8.894;2023-02-28T09:56:20;103369.31;;;3.76;55.81
78444;BME280;67739;52.986;8.894;2023-02-28T09:58:55;103361.56;;;3.85;54.79
78444;BME280;67739;52.986;8.894;2023-02-28T10:01:28;103359.09;;;3.95;54.95
78444;BME280;67739;52.986;8.894;2023-02-28T10:03:59;103367.25;;;4.04;54.17
78444;BME280;67739;52.986;8.894;2023-02-28T10:06:28;103362.97;;;4.12;53.94
78444;BME280;67739;52.986;8.894;2023-02-28T10:09:00;103367.50;;;4.16;50.19
78444;BME280;67739;52.986;8.894;2023-02-28T10:11:27;103368.41;;;4.18;50.30
78444;BME280;67739;52.986;8.894;2023-02-28T10:14:16;103378.25;;;4.23;50.72
78444;BME280;67739;52.986;8.894;2023-02-28T10:16:58;103364.13;;;4.26;49.30
78444;BME280;67739;52.986;8.894;2023-02-28T10:19:56;103373.06;;;4.30;50.51
78444;BME280;67739;52.986;8.894;2023-02-28T10:25:25;103377.75;;;4.43;51.40
78444;BME280;67739;52.986;8.894;2023-02-28T10:28:11;103375.09;;;4.43;49.82
78444;BME280;67739;52.986;8.894;2023-02-28T10:30:48;103374.13;;;4.39;49.33
78444;BME280;67739;52.986;8.894;2023-02-28T10:33:34;103373.31;;;4.43;50.19
78444;BME280;67739;52.986;8.894;2023-02-28T10:36:01;103373.34;;;4.45;50.31
78444;BME280;67739;52.986;8.894;2023-02-28T10:38:35;103368.88;;;4.42;49.80
78444;BME280;67739;52.986;8.894;2023-02-28T10:41:10;103366.19;;;4.41;48.99
78444;BME280;67739;52.986;8.894;2023-02-28T10:43:36;103367.13;;;4.44;49.18
78444;BME280;67739;52.986;8.894;2023-02-28T10:46:11;103373.41;;;4.49;49.79
78444;BME280;67739;52.986;8.894;2023-02-28T10:48:46;103372.72;;;4.59;50.34
78444;BME280;67739;52.986;8.894;2023-02-28T10:51:16;103372.97;;;4.73;49.12
78444;BME280;67739;52.986;8.894;2023-02-28T11:01:14;103354.59;;;4.87;48.80
78444;BME280;67739;52.986;8.894;2023-02-28T11:03:40;103363.56;;;4.95;48.98
78444;BME280;67739;52.986;8.894;2023-02-28T11:06:08;103362.84;;;5.05;47.49
78444;BME280;67739;52.986;8.894;2023-02-28T11:08:53;103363.00;;;5.14;47.11
78444;BME280;67739;52.986;8.894;2023-02-28T11:11:20;103356.03;;;5.24;47.51
78444;BME280;67739;52.986;8.894;2023-02-28T11:13:48;103355.34;;;5.37;48.10
78444;BME280;67739;52.986;8.894;2023-02-28T11:16:15;103349.28;;;5.49;47.08
78444;BME280;67739;52.986;8.894;2023-02-28T11:21:19;103343.41;;;5.73;46.01
78444;BME280;67739;52.986;8.894;2023-02-28T11:23:47;103340.84;;;5.82;46.33
78444;BME280;67739;52.986;8.894;2023-02-28T11:26:14;103342.78;;;5.93;46.20
78444;BME280;67739;52.986;8.894;2023-02-28T11:28:41;103339.38;;;6.03;45.78
78444;BME280;67739;52.986;8.894;2023-02-28T11:33:42;103340.16;;;5.96;42.76
78444;BME280;67739;52.986;8.894;2023-02-28T11:36:19;103333.91;;;5.93;42.85
78444;BME280;67739;52.986;8.894;2023-02-28T11:38:45;103339.13;;;5.87;42.72
78444;BME280;67739;52.986;8.894;2023-02-28T11:51:53;103333.53;;;6.41;44.14
78444;BME280;67739;52.986;8.894;2023-02-28T11:54:58;103321.16;;;6.46;41.34
78444;BME280;67739;52.986;8.894;2023-02-28T11:57:56;103327.25;;;6.33;42.07
78444;BME280;67739;52.986;8.894;2023-02-28T12:00:43;103326.25;;;6.25;42.74
78444;BME280;67739;52.986;8.894;2023-02-28T12:11:50;103308.91;;;6.72;43.57
78444;BME280;67739;52.986;8.894;2023-02-28T12:14:23;103302.78;;;6.84;41.32
78444;BME280;67739;52.986;8.894;2023-02-28T12:17:02;103300.06;;;6.80;40.39
78444;BME280;67739;52.986;8.894;2023-02-28T12:19:45;103302.72;;;6.78;40.62
78444;BME280;67739;52.986;8.894;2023-02-28T12:27:38;103291.94;;;6.60;42.83
78444;BME280;67739;52.986;8.894;2023-02-28T12:30:26;103281.31;;;6.67;44.14
78444;BME280;67739;52.986;8.894;2023-02-28T12:32:58;103289.41;;;6.83;43.89
78444;BME280;67739;52.986;8.894;2023-02-28T12:35:48;103270.00;;;7.02;44.63
78444;BME280;67739;52.986;8.894;2023-02-28T12:38:39;103278.94;;;7.13;41.54
78444;BME280;67739;52.986;8.894;2023-02-28T12:41:05;103273.59;;;7.13;41.80
78444;BME280;67739;52.986;8.894;2023-02-28T12:43:36;103266.50;;;7.15;41.12
78444;BME280;67739;52.986;8.894;2023-02-28T12:46:08;103264.72;;;7.16;40.52
78444;BME280;67739;52.986;8.894;2023-02-28T12:48:56;103254.00;;;7.09;39.97
78444;BME280;67739;52.986;8.894;2023-02-28T12:51:22;103250.44;;;7.03;41.07
78444;BME280;67739;52.986;8.894;2023-02-28T12:53:57;103253.09;;;7.01;41.27
78444;BME280;67739;52.986;8.894;2023-02-28T12:59:29;103241.59;;;7.13;41.79
78444;BME280;67739;52.986;8.894;2023-02-28T13:05:02;103236.16;;;6.96;40.48
78444;BME280;67739;52.986;8.894;2023-02-28T13:10:17;103241.53;;;7.01;41.66
78444;BME280;67739;52.986;8.894;2023-02-28T13:12:54;103239.78;;;7.09;40.27
78444;BME280;67739;52.986;8.894;2023-02-28T13:15:25;103234.50;;;7.18;41.48
78444;BME280;67739;52.986;8.894;2023-02-28T13:17:56;103235.44;;;7.31;40.14
78444;BME280;67739;52.986;8.894;2023-02-28T13:20:27;103233.69;;;7.42;39.94
78444;BME280;67739;52.986;8.894;2023-02-28T13:22:55;103240.84;;;7.52;40.47
78444;BME280;67739;52.986;8.894;2023-02-28T13:27:51;103217.78;;;7.77;40.80
78444;BME280;67739;52.986;8.894;2023-02-28T13:33:34;103218.72;;;8.03;40.38
78444;BME280;67739;52.986;8.894;2023-02-28T13:38:53;103216.03;;;8.14;38.16
78444;BME280;67739;52.986;8.894;2023-02-28T13:44:15;103200.00;;;8.05;41.11
78444;BME280;67739;52.986;8.894;2023-02-28T13:49:31;103200.88;;;7.99;39.67
78444;BME280;67739;52.986;8.894;2023-02-28T14:00:16;103191.09;;;8.01;37.55
78444;BME280;67739;52.986;8.894;2023-02-28T14:05:34;103187.50;;;7.73;38.08
78444;BME280;67739;52.986;8.894;2023-02-28T14:08:08;103199.06;;;7.69;38.84
78444;BME280;67739;52.986;8.894;2023-02-28T14:10:44;103186.59;;;7.73;40.27
78444;BME280;67739;52.986;8.894;2023-02-28T14:13:44;103191.06;;;7.77;38.52
78444;BME280;67739;52.986;8.894;2023-02-28T14:16:20;103202.63;;;7.64;38.15
78444;BME280;67739;52.986;8.894;2023-02-28T14:32:47;103198.91;;;7.22;39.53
78444;BME280;67739;52.986;8.894;2023-02-28T14:38:19;103191.72;;;7.09;38.38
78444;BME280;67739;52.986;8.894;2023-02-28T14:40:47;103191.69;;;6.98;38.18
78444;BME280;67739;52.986;8.894;2023-02-28T14:43:47;103195.22;;;6.96;40.09
78444;BME280;67739;52.986;8.894;2023-02-28T14:46:13;103194.31;;;6.95;39.17
78444;BME280;67739;52.986;8.894;2023-02-28T14:48:39;103187.22;;;6.96;40.74
78444;BME280;67739;52.986;8.894;2023-02-28T14:51:04;103187.22;;;6.96;39.83
78444;BME280;67739;52.986;8.894;2023-02-28T14:53:35;103191.66;;;6.94;38.91
78444;BME280;67739;52.986;8.894;2023-02-28T14:56:01;103194.28;;;6.86;38.61
78444;BME280;67739;52.986;8.894;2023-02-28T14:58:31;103198.72;;;6.83;39.93
78444;BME280;67739;52.986;8.894;2023-02-28T15:01:00;103194.25;;;6.80;40.04
78444;BME280;67739;52.986;8.894;2023-02-28T15:03:37;103194.25;;;6.76;40.31
78444;BME280;67739;52.986;8.894;2023-02-28T15:06:05;103204.88;;;6.71;40.79
78444;BME280;67739;52.986;8.894;2023-02-28T15:08:32;103195.94;;;6.63;40.20
78444;BME280;67739;52.986;8.894;2023-02-28T15:11:04;103194.09;;;6.56;40.85
78444;BME280;67739;52.986;8.894;2023-02-28T15:16:03;103192.19;;;6.38;41.62
78444;BME280;67739;52.986;8.894;2023-02-28T15:21:02;103210.69;;;6.17;41.75